sensor_id;sensor_type;location;lat;lon;timestamp;pressure;altitude;pressure_sealevel;temperature;humidity
66880;BME280;53789;51.392;10.234;2023-04-07T00:00:08;98302.06;;;2.50;62.63
66880;BME280;53789;51.392;10.234;2023-04-07T00:00:29;98290.38;;;2.49;62.50
66880;BME280;53789;51.392;10.234;2023-04-07T00:00:50;98291.19;;;2.50;61.66
66880;BME280;53789;51.392;10.234;2023-04-07T00:01:10;98296.63;;;2.50;62.58
66880;BME280;53789;51.392;10.234;2023-04-07T00:01:30;98300.16;;;2.50;62.43
66880;BME280;53789;51.392;10.234;2023-04-07T00:01:50;98295.81;;;2.49;61.48
66880;BME280;53789;51.392;10.234;2023-04-07T00:02:11;98296.63;;;2.50;62.13
66880;BME280;53789;51.392;10.234;2023-04-07T00:02:31;98293.34;;;2.48;62.01
66880;BME280;53789;51.392;10.234;2023-04-07T00:02:51;98286.28;;;2.47;62.56
66880;BME280;53789;51.392;10.234;2023-04-07T00:03:12;98289.00;;;2.47;61.84
66880;BME280;53789;51.392;10.234;2023-04-07T00:03:32;98293.59;;;2.46;62.49
66880;BME280;53789;51.392;10.234;2023-04-07T00:03:52;98292.53;;;2.47;62.00
66880;BME280;53789;51.392;10.234;2023-04-07T00:04:13;98294.41;;;2.47;62.56
66880;BME280;53789;51.392;10.234;2023-04-07T00:04:33;98290.66;;;2.48;62.38
66880;BME280;53789;51.392;10.234;2023-04-07T00:04:53;98294.69;;;2.45;62.56
66880;BME280;53789;51.392;10.234;2023-04-07T00:05:14;98298.19;;;2.46;61.77
66880;BME280;53789;51.392;10.234;2023-04-07T00:05:34;98285.94;;;2.43;62.13
66880;BME280;53789;51.392;10.234;2023-04-07T00:05:54;98281.59;;;2.42;62.73
66880;BME280;53789;51.392;10.234;2023-04-07T00:06:15;98286.19;;;2.42;61.73
66880;BME280;53789;51.392;10.234;2023-04-07T00:06:35;98290.00;;;2.41;62.88
66880;BME280;53789;51.392;10.234;2023-04-07T00:06:55;98285.38;;;2.41;62.28
66880;BME280;53789;51.392;10.234;2023-04-07T00:07:15;98288.09;;;2.41;62.78
66880;BME280;53789;51.392;10.234;2023-04-07T00:07:36;98287.03;;;2.42;61.80
66880;BME280;53789;51.392;10.234;2023-04-07T00:07:56;98288.91;;;2.42;62.28
66880;BME280;53789;51.392;10.234;2023-04-07T00:08:16;98290.31;;;2.44;62.17
66880;BME280;53789;51.392;10.234;2023-04-07T00:08:37;98291.38;;;2.43;63.05
66880;BME280;53789;51.392;10.234;2023-04-07T00:08:57;98291.13;;;2.45;62.31
66880;BME280;53789;51.392;10.234;2023-04-07T00:09:17;98284.06;;;2.44;61.99
66880;BME280;53789;51.392;10.234;2023-04-07T00:09:37;98295.50;;;2.46;62.06
66880;BME280;53789;51.392;10.234;2023-04-07T00:09:58;98289.81;;;2.47;62.11
66880;BME280;53789;51.392;10.234;2023-04-07T00:10:18;98285.22;;;2.48;62.43
66880;BME280;53789;51.392;10.234;2023-04-07T00:10:38;98284.38;;;2.47;62.10
66880;BME280;53789;51.392;10.234;2023-04-07T00:10:59;98289.81;;;2.47;61.67
66880;BME280;53789;51.392;10.234;2023-04-07T00:11:19;98287.94;;;2.48;61.42
66880;BME280;53789;51.392;10.234;2023-04-07T00:11:39;98280.59;;;2.48;61.49
66880;BME280;53789;51.392;10.234;2023-04-07T00:11:59;98283.31;;;2.48;62.58
66880;BME280;53789;51.392;10.234;2023-04-07T00:12:20;98287.69;;;2.49;61.77
66880;BME280;53789;51.392;10.234;2023-04-07T00:12:40;98289.56;;;2.49;61.91
66880;BME280;53789;51.392;10.234;2023-04-07T00:13:00;98293.91;;;2.50;62.79
66880;BME280;53789;51.392;10.234;2023-04-07T00:13:21;98284.97;;;2.49;61.93
66880;BME280;53789;51.392;10.234;2023-04-07T00:13:41;98283.88;;;2.50;62.59
66880;BME280;53789;51.392;10.234;2023-04-07T00:14:02;98288.47;;;2.50;62.28
66880;BME280;53789;51.392;10.234;2023-04-07T00:14:22;98280.34;;;2.50;62.48
66880;BME280;53789;51.392;10.234;2023-04-07T00:14:42;98285.78;;;2.50;62.21
66880;BME280;53789;51.392;10.234;2023-04-07T00:15:03;98284.97;;;2.49;62.79
66880;BME280;53789;51.392;10.234;2023-04-07T00:15:23;98287.69;;;2.49;62.25
66880;BME280;53789;51.392;10.234;2023-04-07T00:15:43;98290.38;;;2.49;62.51
66880;BME280;53789;51.392;10.234;2023-04-07T00:16:04;98288.47;;;2.50;62.59
66880;BME280;53789;51.392;10.234;2023-04-07T00:16:24;98284.72;;;2.51;61.94
66880;BME280;53789;51.392;10.234;2023-04-07T00:16:44;98285.78;;;2.50;62.70
66880;BME280;53789;51.392;10.234;2023-04-07T00:17:04;98282.81;;;2.51;62.79
66880;BME280;53789;51.392;10.234;2023-04-07T00:17:25;98279.03;;;2.53;62.39
66880;BME280;53789;51.392;10.234;2023-04-07T00:17:45;98278.19;;;2.52;63.05
66880;BME280;53789;51.392;10.234;2023-04-07T00:18:05;98285.50;;;2.51;62.28
66880;BME280;53789;51.392;10.234;2023-04-07T00:18:26;98283.06;;;2.50;62.30
66880;BME280;53789;51.392;10.234;2023-04-07T00:18:46;98281.16;;;2.50;62.81
66880;BME280;53789;51.392;10.234;2023-04-07T00:19:06;98278.69;;;2.49;62.49
66880;BME280;53789;51.392;10.234;2023-04-07T00:19:26;98278.69;;;2.49;62.46
66880;BME280;53789;51.392;10.234;2023-04-07T00:19:47;98278.69;;;2.49;62.67
66880;BME280;53789;51.392;10.234;2023-04-07T00:20:07;98281.16;;;2.50;61.69
66880;BME280;53789;51.392;10.234;2023-04-07T00:20:28;98275.72;;;2.50;62.04
66880;BME280;53789;51.392;10.234;2023-04-07T00:20:48;98277.63;;;2.50;61.80
66880;BME280;53789;51.392;10.234;2023-04-07T00:21:08;98274.09;;;2.49;61.77
66880;BME280;53789;51.392;10.234;2023-04-07T00:21:28;98273.25;;;2.49;61.94
66880;BME280;53789;51.392;10.234;2023-04-07T00:21:49;98277.06;;;2.48;61.72
66880;BME280;53789;51.392;10.234;2023-04-07T00:22:09;98280.59;;;2.48;62.09
66880;BME280;53789;51.392;10.234;2023-04-07T00:22:29;98278.94;;;2.47;62.33
66880;BME280;53789;51.392;10.234;2023-04-07T00:22:49;98280.00;;;2.46;62.63
66880;BME280;53789;51.392;10.234;2023-04-07T00:23:10;98281.91;;;2.46;62.59
66880;BME280;53789;51.392;10.234;2023-04-07T00:23:30;98282.16;;;2.44;62.33
66880;BME280;53789;51.392;10.234;2023-04-07T00:23:50;98283.22;;;2.43;62.54
66880;BME280;53789;51.392;10.234;2023-04-07T00:24:11;98268.03;;;2.42;61.85
66880;BME280;53789;51.392;10.234;2023-04-07T00:24:31;98278.06;;;2.42;61.78
66880;BME280;53789;51.392;10.234;2023-04-07T00:24:51;98281.59;;;2.42;62.41
66880;BME280;53789;51.392;10.234;2023-04-07T00:25:12;98279.97;;;2.41;62.38
66880;BME280;53789;51.392;10.234;2023-04-07T00:25:32;98280.22;;;2.40;61.58
66880;BME280;53789;51.392;10.234;2023-04-07T00:25:52;98279.66;;;2.38;62.02
66880;BME280;53789;51.392;10.234;2023-04-07T00:26:12;98277.19;;;2.36;61.85
66880;BME280;53789;51.392;10.234;2023-04-07T00:26:33;98278.81;;;2.37;62.45
66880;BME280;53789;51.392;10.234;2023-04-07T00:26:53;98283.69;;;2.35;61.97
66880;BME280;53789;51.392;10.234;2023-04-07T00:27:13;98275.53;;;2.35;63.34
66880;BME280;53789;51.392;10.234;2023-04-07T00:27:34;98282.84;;;2.34;62.49
66880;BME280;53789;51.392;10.234;2023-04-07T00:27:54;98283.94;;;2.33;63.22
66880;BME280;53789;51.392;10.234;2023-04-07T00:28:14;98278.50;;;2.33;62.81
66880;BME280;53789;51.392;10.234;2023-04-07T00:28:34;98278.50;;;2.33;63.20
66880;BME280;53789;51.392;10.234;2023-04-07T00:28:55;98279.56;;;2.32;62.20
66880;BME280;53789;51.392;10.234;2023-04-07T00:29:15;98277.13;;;2.31;62.69
66880;BME280;53789;51.392;10.234;2023-04-07T00:29:35;98276.31;;;2.30;62.55
66880;BME280;53789;51.392;10.234;2023-04-07T00:29:56;98277.91;;;2.31;62.74
66880;BME280;53789;51.392;10.234;2023-04-07T00:30:16;98285.50;;;2.29;62.74
66880;BME280;53789;51.392;10.234;2023-04-07T00:30:36;98276.56;;;2.29;62.60
66880;BME280;53789;51.392;10.234;2023-04-07T00:30:56;98272.19;;;2.28;62.38
66880;BME280;53789;51.392;10.234;2023-04-07T00:31:17;98278.44;;;2.28;62.91
66880;BME280;53789;51.392;10.234;2023-04-07T00:31:37;98275.97;;;2.27;63.33
66880;BME280;53789;51.392;10.234;2023-04-07T00:31:57;98280.59;;;2.26;62.22
66880;BME280;53789;51.392;10.234;2023-04-07T00:32:18;98279.78;;;2.26;63.04
66880;BME280;53789;51.392;10.234;2023-04-07T00:32:38;98281.66;;;2.25;62.20
66880;BME280;53789;51.392;10.234;2023-04-07T00:32:58;98282.16;;;2.22;63.22
66880;BME280;53789;51.392;10.234;2023-04-07T00:33:19;98283.22;;;2.21;62.56
66880;BME280;53789;51.392;10.234;2023-04-07T00:33:39;98282.41;;;2.21;62.39
66880;BME280;53789;51.392;10.234;2023-04-07T00:33:59;98280.75;;;2.20;62.55
66880;BME280;53789;51.392;10.234;2023-04-07T00:34:19;98283.72;;;2.18;62.87
66880;BME280;53789;51.392;10.234;2023-04-07T00:34:40;98286.44;;;2.18;62.35
66880;BME280;53789;51.392;10.234;2023-04-07T00:35:00;98283.72;;;2.18;62.59
66880;BME280;53789;51.392;10.234;2023-04-07T00:35:20;98273.94;;;2.17;62.97
66880;BME280;53789;51.392;10.234;2023-04-07T00:35:41;98277.72;;;2.16;63.40
66880;BME280;53789;51.392;10.234;2023-04-07T00:36:01;98282.34;;;2.15;62.42
66880;BME280;53789;51.392;10.234;2023-04-07T00:36:21;98284.22;;;2.15;62.25
66880;BME280;53789;51.392;10.234;2023-04-07T00:36:42;98281.50;;;2.15;62.56
66880;BME280;53789;51.392;10.234;2023-04-07T00:37:02;98274.47;;;2.14;63.64
66880;BME280;53789;51.392;10.234;2023-04-07T00:37:22;98274.72;;;2.12;63.51
66880;BME280;53789;51.392;10.234;2023-04-07T00:37:43;98277.66;;;2.11;63.45
66880;BME280;53789;51.392;10.234;2023-04-07T00:38:03;98274.94;;;2.11;62.95
66880;BME280;53789;51.392;10.234;2023-04-07T00:38:23;98276.59;;;2.12;62.84
66880;BME280;53789;51.392;10.234;2023-04-07T00:38:44;98289.34;;;2.11;63.24
66880;BME280;53789;51.392;10.234;2023-04-07T00:39:04;98284.97;;;2.10;62.86
66880;BME280;53789;51.392;10.234;2023-04-07T00:39:24;98280.59;;;2.09;62.83
66880;BME280;53789;51.392;10.234;2023-04-07T00:39:45;98277.09;;;2.09;63.87
66880;BME280;53789;51.392;10.234;2023-04-07T00:40:05;98285.22;;;2.09;63.19
66880;BME280;53789;51.392;10.234;2023-04-07T00:40:26;98272.16;;;2.06;62.89
66880;BME280;53789;51.392;10.234;2023-04-07T00:40:46;98279.25;;;2.07;62.74
66880;BME280;53789;51.392;10.234;2023-04-07T00:41:06;98277.59;;;2.06;63.94
66880;BME280;53789;51.392;10.234;2023-04-07T00:41:27;98276.78;;;2.05;63.25
66880;BME280;53789;51.392;10.234;2023-04-07T00:41:47;98279.75;;;2.04;63.75
66880;BME280;53789;51.392;10.234;2023-04-07T00:42:08;98284.31;;;2.03;63.53
66880;BME280;53789;51.392;10.234;2023-04-07T00:42:28;98280.00;;;2.02;62.75
66880;BME280;53789;51.392;10.234;2023-04-07T00:42:48;98278.34;;;2.01;63.66
66880;BME280;53789;51.392;10.234;2023-04-07T00:43:09;98280.25;;;2.01;63.97
66880;BME280;53789;51.392;10.234;2023-04-07T00:43:29;98275.88;;;1.99;64.29
66880;BME280;53789;51.392;10.234;2023-04-07T00:43:50;98276.94;;;1.98;62.99
66880;BME280;53789;51.392;10.234;2023-04-07T00:44:11;98274.47;;;1.97;62.82
66880;BME280;53789;51.392;10.234;2023-04-07T00:44:32;98279.09;;;1.96;63.66
66880;BME280;53789;51.392;10.234;2023-04-07T00:44:53;98270.13;;;1.96;63.44
66880;BME280;53789;51.392;10.234;2023-04-07T00:45:13;98279.09;;;1.96;63.66
66880;BME280;53789;51.392;10.234;2023-04-07T00:45:35;98271.22;;;1.95;63.64
66880;BME280;53789;51.392;10.234;2023-04-07T00:45:56;98273.06;;;1.94;63.36
66880;BME280;53789;51.392;10.234;2023-04-07T00:46:18;98273.06;;;1.94;63.56
66880;BME280;53789;51.392;10.234;2023-04-07T00:46:41;98273.91;;;1.95;63.52
66880;BME280;53789;51.392;10.234;2023-04-07T00:47:01;98264.94;;;1.94;63.39
66880;BME280;53789;51.392;10.234;2023-04-07T00:47:22;98271.22;;;1.95;63.38
66880;BME280;53789;51.392;10.234;2023-04-07T00:47:42;98273.06;;;1.94;64.12
66880;BME280;53789;51.392;10.234;2023-04-07T00:48:03;98267.41;;;1.96;64.07
66880;BME280;53789;51.392;10.234;2023-04-07T00:48:24;98266.59;;;1.95;63.60
66880;BME280;53789;51.392;10.234;2023-04-07T00:48:44;98270.97;;;1.96;63.11
66880;BME280;53789;51.392;10.234;2023-04-07T00:49:05;98270.13;;;1.96;63.52
66880;BME280;53789;51.392;10.234;2023-04-07T00:49:26;98269.88;;;1.97;63.32
66880;BME280;53789;51.392;10.234;2023-04-07T00:49:46;98269.06;;;1.97;64.05
66880;BME280;53789;51.392;10.234;2023-04-07T00:50:07;98270.13;;;1.96;63.72
66880;BME280;53789;51.392;10.234;2023-04-07T00:50:28;98266.34;;;1.97;63.91
66880;BME280;53789;51.392;10.234;2023-04-07T00:50:48;98268.00;;;1.98;63.87
66880;BME280;53789;51.392;10.234;2023-04-07T00:51:08;98273.41;;;1.98;63.72
66880;BME280;53789;51.392;10.234;2023-04-07T00:51:29;98269.88;;;1.97;64.15
66880;BME280;53789;51.392;10.234;2023-04-07T00:51:49;98265.53;;;1.96;64.26
66880;BME280;53789;51.392;10.234;2023-04-07T00:52:11;98265.53;;;1.96;63.58
66880;BME280;53789;51.392;10.234;2023-04-07T00:52:32;98270.72;;;1.98;63.60
66880;BME280;53789;51.392;10.234;2023-04-07T00:52:53;98264.19;;;1.99;62.73
66880;BME280;53789;51.392;10.234;2023-04-07T00:53:14;98266.09;;;1.98;62.88
66880;BME280;53789;51.392;10.234;2023-04-07T00:53:35;98270.97;;;1.96;63.80
66880;BME280;53789;51.392;10.234;2023-04-07T00:53:55;98265.53;;;1.96;63.46
66880;BME280;53789;51.392;10.234;2023-04-07T00:54:17;98273.06;;;1.94;63.11
66880;BME280;53789;51.392;10.234;2023-04-07T00:54:41;98270.38;;;1.94;63.60
66880;BME280;53789;51.392;10.234;2023-04-07T00:55:01;98258.97;;;1.92;63.05
66880;BME280;53789;51.392;10.234;2023-04-07T00:55:22;98264.94;;;1.94;63.54
66880;BME280;53789;51.392;10.234;2023-04-07T00:55:42;98261.66;;;1.92;63.13
66880;BME280;53789;51.392;10.234;2023-04-07T00:56:02;98266.03;;;1.93;63.24
66880;BME280;53789;51.392;10.234;2023-04-07T00:56:23;98266.53;;;1.90;62.89
66880;BME280;53789;51.392;10.234;2023-04-07T00:56:43;98258.41;;;1.90;62.97
66880;BME280;53789;51.392;10.234;2023-04-07T00:57:03;98267.34;;;1.91;62.90
66880;BME280;53789;51.392;10.234;2023-04-07T00:57:24;98261.09;;;1.90;64.26
66880;BME280;53789;51.392;10.234;2023-04-07T00:57:44;98260.03;;;1.91;63.61
66880;BME280;53789;51.392;10.234;2023-04-07T00:58:04;98264.63;;;1.91;63.85
66880;BME280;53789;51.392;10.234;2023-04-07T00:58:25;98268.16;;;1.91;63.93
66880;BME280;53789;51.392;10.234;2023-04-07T00:58:46;98261.09;;;1.90;64.16
66880;BME280;53789;51.392;10.234;2023-04-07T00:59:06;98265.44;;;1.91;63.01
66880;BME280;53789;51.392;10.234;2023-04-07T00:59:26;98262.97;;;1.90;63.93
66880;BME280;53789;51.392;10.234;2023-04-07T00:59:48;98262.16;;;1.89;63.36
66880;BME280;53789;51.392;10.234;2023-04-07T01:00:09;98265.69;;;1.90;63.39
66880;BME280;53789;51.392;10.234;2023-04-07T01:00:32;98262.97;;;1.90;63.72
66880;BME280;53789;51.392;10.234;2023-04-07T01:01:06;98263.81;;;1.90;63.05
66880;BME280;53789;51.392;10.234;2023-04-07T01:01:36;98268.41;;;1.90;64.21
66880;BME280;53789;51.392;10.234;2023-04-07T01:02:31;98262.16;;;1.89;63.92
66880;BME280;53789;51.392;10.234;2023-04-07T01:03:00;98259.47;;;1.89;63.91
66880;BME280;53789;51.392;10.234;2023-04-07T01:03:30;98262.16;;;1.89;63.62
66880;BME280;53789;51.392;10.234;2023-04-07T01:04:04;98263.22;;;1.88;63.50
66880;BME280;53789;51.392;10.234;2023-04-07T01:04:42;98257.00;;;1.88;63.49
66880;BME280;53789;51.392;10.234;2023-04-07T01:05:17;98262.41;;;1.88;63.33
66880;BME280;53789;51.392;10.234;2023-04-07T01:06:00;98261.34;;;1.89;63.26
66880;BME280;53789;51.392;10.234;2023-04-07T01:06:24;98264.88;;;1.89;63.49
66880;BME280;53789;51.392;10.234;2023-04-07T01:06:50;98264.88;;;1.89;63.93
66880;BME280;53789;51.392;10.234;2023-04-07T01:07:17;98262.97;;;1.90;63.76
66880;BME280;53789;51.392;10.234;2023-04-07T01:09:36;98260.28;;;1.90;63.41
66880;BME280;53789;51.392;10.234;2023-04-07T01:10:05;98257.81;;;1.88;63.42
66880;BME280;53789;51.392;10.234;2023-04-07T01:11:31;98253.22;;;1.89;64.25
66880;BME280;53789;51.392;10.234;2023-04-07T01:12:23;98250.72;;;1.87;63.69
66880;BME280;53789;51.392;10.234;2023-04-07T01:13:49;98253.44;;;1.87;63.45
66880;BME280;53789;51.392;10.234;2023-04-07T01:14:12;98253.22;;;1.89;64.22
66880;BME280;53789;51.392;10.234;2023-04-07T01:14:41;98255.94;;;1.89;64.45
66880;BME280;53789;51.392;10.234;2023-04-07T01:15:09;98257.81;;;1.88;63.79
66880;BME280;53789;51.392;10.234;2023-04-07T01:15:33;98245.31;;;1.87;63.94
66880;BME280;53789;51.392;10.234;2023-04-07T01:15:57;98257.81;;;1.88;64.00
66880;BME280;53789;51.392;10.234;2023-04-07T01:16:48;98254.84;;;1.90;64.25
66880;BME280;53789;51.392;10.234;2023-04-07T01:17:12;98254.03;;;1.89;64.05
66880;BME280;53789;51.392;10.234;2023-04-07T01:17:37;98252.13;;;1.90;63.93
66880;BME280;53789;51.392;10.234;2023-04-07T01:18:22;98247.53;;;1.90;63.22
66880;BME280;53789;51.392;10.234;2023-04-07T01:18:47;98252.38;;;1.88;62.99
66880;BME280;53789;51.392;10.234;2023-04-07T01:19:17;98255.09;;;1.88;63.79
66880;BME280;53789;51.392;10.234;2023-04-07T01:20:01;98242.38;;;1.89;62.81
66880;BME280;53789;51.392;10.234;2023-04-07T01:20:26;98244.50;;;1.87;63.37
66880;BME280;53789;51.392;10.234;2023-04-07T01:20:50;98248.28;;;1.86;63.15
66880;BME280;53789;51.392;10.234;2023-04-07T01:21:17;98253.94;;;1.84;63.95
66880;BME280;53789;51.392;10.234;2023-04-07T01:21:41;98249.63;;;1.83;63.68
66880;BME280;53789;51.392;10.234;2023-04-07T01:22:10;98244.44;;;1.81;63.52
66880;BME280;53789;51.392;10.234;2023-04-07T01:22:39;98247.41;;;1.80;63.90
66880;BME280;53789;51.392;10.234;2023-04-07T01:23:04;98251.97;;;1.79;63.09
66880;BME280;53789;51.392;10.234;2023-04-07T01:23:48;98254.94;;;1.78;63.92
66880;BME280;53789;51.392;10.234;2023-04-07T01:24:32;98246.81;;;1.78;64.34
66880;BME280;53789;51.392;10.234;2023-04-07T01:25:53;98241.38;;;1.78;64.58
66880;BME280;53789;51.392;10.234;2023-04-07T01:26:27;98254.94;;;1.78;64.16
66880;BME280;53789;51.392;10.234;2023-04-07T01:26:48;98241.38;;;1.78;64.56
66880;BME280;53789;51.392;10.234;2023-04-07T01:28:55;98245.75;;;1.79;64.13
66880;BME280;53789;51.392;10.234;2023-04-07T01:29:53;98245.75;;;1.79;63.82
66880;BME280;53789;51.392;10.234;2023-04-07T01:30:16;98247.66;;;1.78;64.72
66880;BME280;53789;51.392;10.234;2023-04-07T01:30:39;98250.38;;;1.78;64.17
66880;BME280;53789;51.392;10.234;2023-04-07T01:31:04;98242.22;;;1.78;63.91
66880;BME280;53789;51.392;10.234;2023-04-07T01:31:27;98248.47;;;1.79;64.47
66880;BME280;53789;51.392;10.234;2023-04-07T01:31:49;98248.47;;;1.79;64.22
66880;BME280;53789;51.392;10.234;2023-04-07T01:32:11;98253.06;;;1.78;64.42
66880;BME280;53789;51.392;10.234;2023-04-07T01:32:35;98246.81;;;1.78;64.05
66880;BME280;53789;51.392;10.234;2023-04-07T01:32:58;98246.00;;;1.77;62.88
66880;BME280;53789;51.392;10.234;2023-04-07T01:33:20;98252.22;;;1.78;64.19
66880;BME280;53789;51.392;10.234;2023-04-07T01:33:44;98250.38;;;1.78;64.02
66880;BME280;53789;51.392;10.234;2023-04-07T01:34:06;98246.00;;;1.77;64.27
66880;BME280;53789;51.392;10.234;2023-04-07T01:34:30;98245.19;;;1.77;63.56
66880;BME280;53789;51.392;10.234;2023-04-07T01:34:53;98249.53;;;1.78;64.05
66880;BME280;53789;51.392;10.234;2023-04-07T01:35:15;98251.41;;;1.77;63.60
66880;BME280;53789;51.392;10.234;2023-04-07T01:35:38;98244.34;;;1.76;63.93
66880;BME280;53789;51.392;10.234;2023-04-07T01:36:01;98246.25;;;1.76;64.50
66880;BME280;53789;51.392;10.234;2023-04-07T01:36:25;98253.53;;;1.75;63.61
66880;BME280;53789;51.392;10.234;2023-04-07T01:36:48;98249.78;;;1.76;64.27
66880;BME280;53789;51.392;10.234;2023-04-07T01:37:10;98242.69;;;1.75;63.79
66880;BME280;53789;51.392;10.234;2023-04-07T01:37:32;98240.81;;;1.76;64.66
66880;BME280;53789;51.392;10.234;2023-04-07T01:37:54;98250.63;;;1.77;64.17
66880;BME280;53789;51.392;10.234;2023-04-07T01:38:15;98246.00;;;1.77;63.18
66880;BME280;53789;51.392;10.234;2023-04-07T01:38:37;98247.91;;;1.77;63.25
66880;BME280;53789;51.392;10.234;2023-04-07T01:38:59;98239.75;;;1.77;63.81
66880;BME280;53789;51.392;10.234;2023-04-07T01:39:20;98247.06;;;1.76;63.44
66880;BME280;53789;51.392;10.234;2023-04-07T01:39:41;98244.34;;;1.76;63.44
66880;BME280;53789;51.392;10.234;2023-04-07T01:40:04;98248.13;;;1.75;64.16
66880;BME280;53789;51.392;10.234;2023-04-07T01:40:28;98245.41;;;1.75;64.57
66880;BME280;53789;51.392;10.234;2023-04-07T01:40:51;98246.25;;;1.76;64.11
66880;BME280;53789;51.392;10.234;2023-04-07T01:41:14;98250.03;;;1.75;64.16
66880;BME280;53789;51.392;10.234;2023-04-07T01:41:36;98248.38;;;1.74;64.53
66880;BME280;53789;51.392;10.234;2023-04-07T01:41:58;98249.47;;;1.73;63.15
66880;BME280;53789;51.392;10.234;2023-04-07T01:42:19;98250.53;;;1.72;64.00
66880;BME280;53789;51.392;10.234;2023-04-07T01:42:42;98240.72;;;1.71;63.02
66880;BME280;53789;51.392;10.234;2023-04-07T01:43:05;98251.03;;;1.69;63.17
66880;BME280;53789;51.392;10.234;2023-04-07T01:43:27;98246.66;;;1.68;64.32
66880;BME280;53789;51.392;10.234;2023-04-07T01:43:49;98243.38;;;1.66;64.47
66880;BME280;53789;51.392;10.234;2023-04-07T01:44:13;98244.19;;;1.66;64.80
66880;BME280;53789;51.392;10.234;2023-04-07T01:44:35;98245.28;;;1.65;63.71
66880;BME280;53789;51.392;10.234;2023-04-07T01:44:57;98248.00;;;1.65;65.00
66880;BME280;53789;51.392;10.234;2023-04-07T01:45:19;98247.16;;;1.64;64.23
66880;BME280;53789;51.392;10.234;2023-04-07T01:45:41;98239.03;;;1.64;63.38
66880;BME280;53789;51.392;10.234;2023-04-07T01:46:04;98246.34;;;1.64;63.64
66880;BME280;53789;51.392;10.234;2023-04-07T01:46:24;98236.81;;;1.61;64.40
66880;BME280;53789;51.392;10.234;2023-04-07T01:46:45;98241.41;;;1.61;64.17
66880;BME280;53789;51.392;10.234;2023-04-07T01:47:06;98244.38;;;1.59;64.42
66880;BME280;53789;51.392;10.234;2023-04-07T01:47:28;98245.19;;;1.60;65.01
66880;BME280;53789;51.392;10.234;2023-04-07T01:47:49;98240.03;;;1.58;64.37
66880;BME280;53789;51.392;10.234;2023-04-07T01:48:12;98240.03;;;1.58;63.93
66880;BME280;53789;51.392;10.234;2023-04-07T01:48:34;98238.97;;;1.59;64.75
66880;BME280;53789;51.392;10.234;2023-04-07T01:48:55;98242.72;;;1.58;65.01
66880;BME280;53789;51.392;10.234;2023-04-07T01:49:17;98239.22;;;1.58;63.92
66880;BME280;53789;51.392;10.234;2023-04-07T01:49:39;98240.03;;;1.58;64.95
66880;BME280;53789;51.392;10.234;2023-04-07T01:50:01;98242.72;;;1.58;63.44
66880;BME280;53789;51.392;10.234;2023-04-07T01:50:24;98243.78;;;1.57;63.68
66880;BME280;53789;51.392;10.234;2023-04-07T01:50:45;98245.94;;;1.55;63.21
66880;BME280;53789;51.392;10.234;2023-04-07T01:51:08;98246.75;;;1.56;63.24
66880;BME280;53789;51.392;10.234;2023-04-07T01:51:31;98244.88;;;1.56;63.53
66880;BME280;53789;51.392;10.234;2023-04-07T01:51:53;98242.16;;;1.56;63.86
66880;BME280;53789;51.392;10.234;2023-04-07T01:52:16;98253.00;;;1.56;64.02
66880;BME280;53789;51.392;10.234;2023-04-07T01:52:37;98251.13;;;1.57;63.95
66880;BME280;53789;51.392;10.234;2023-04-07T01:52:58;98246.75;;;1.56;64.18
66880;BME280;53789;51.392;10.234;2023-04-07T01:53:20;98250.31;;;1.56;63.47
66880;BME280;53789;51.392;10.234;2023-04-07T01:53:40;98253.00;;;1.56;64.52
66880;BME280;53789;51.392;10.234;2023-04-07T01:54:03;98251.13;;;1.57;64.07
66880;BME280;53789;51.392;10.234;2023-04-07T01:54:24;98253.81;;;1.57;64.69
66880;BME280;53789;51.392;10.234;2023-04-07T01:54:46;98251.91;;;1.57;63.67
66880;BME280;53789;51.392;10.234;2023-04-07T01:55:06;98251.91;;;1.57;64.44
66880;BME280;53789;51.392;10.234;2023-04-07T01:55:28;98248.41;;;1.57;63.96
66880;BME280;53789;51.392;10.234;2023-04-07T01:55:48;98250.88;;;1.58;65.07
66880;BME280;53789;51.392;10.234;2023-04-07T01:56:09;98252.75;;;1.58;65.30
66880;BME280;53789;51.392;10.234;2023-04-07T01:56:30;98252.75;;;1.58;64.15
66880;BME280;53789;51.392;10.234;2023-04-07T01:56:50;98242.72;;;1.58;64.92
66880;BME280;53789;51.392;10.234;2023-04-07T01:57:10;98252.50;;;1.59;64.56
66880;BME280;53789;51.392;10.234;2023-04-07T01:57:31;98252.50;;;1.59;64.48
66880;BME280;53789;51.392;10.234;2023-04-07T01:57:54;98248.16;;;1.58;64.70
66880;BME280;53789;51.392;10.234;2023-04-07T01:58:16;98248.97;;;1.59;64.11
66880;BME280;53789;51.392;10.234;2023-04-07T01:58:36;98246.25;;;1.59;64.89
66880;BME280;53789;51.392;10.234;2023-04-07T01:58:56;98250.63;;;1.60;64.82
66880;BME280;53789;51.392;10.234;2023-04-07T01:59:17;98253.88;;;1.62;63.58
66880;BME280;53789;51.392;10.234;2023-04-07T01:59:37;98246.59;;;1.62;64.57
66880;BME280;53789;51.392;10.234;2023-04-07T01:59:58;98248.47;;;1.62;64.21
66880;BME280;53789;51.392;10.234;2023-04-07T02:00:18;98249.31;;;1.62;64.32
66880;BME280;53789;51.392;10.234;2023-04-07T02:00:40;98249.88;;;1.64;64.60
66880;BME280;53789;51.392;10.234;2023-04-07T02:01:00;98245.53;;;1.63;64.33
66880;BME280;53789;51.392;10.234;2023-04-07T02:01:21;98249.06;;;1.64;64.71
66880;BME280;53789;51.392;10.234;2023-04-07T02:01:41;98248.81;;;1.66;63.88
66880;BME280;53789;51.392;10.234;2023-04-07T02:02:01;98252.31;;;1.66;64.02
66880;BME280;53789;51.392;10.234;2023-04-07T02:02:22;98248.56;;;1.67;63.38
66880;BME280;53789;51.392;10.234;2023-04-07T02:02:44;98249.38;;;1.68;64.74
66880;BME280;53789;51.392;10.234;2023-04-07T02:03:19;98244.78;;;1.68;64.38
66880;BME280;53789;51.392;10.234;2023-04-07T02:03:51;98252.06;;;1.68;63.57
66880;BME280;53789;51.392;10.234;2023-04-07T02:04:54;98240.44;;;1.67;64.22
66880;BME280;53789;51.392;10.234;2023-04-07T02:05:19;98247.75;;;1.67;64.73
66880;BME280;53789;51.392;10.234;2023-04-07T02:05:41;98247.75;;;1.67;65.01
66880;BME280;53789;51.392;10.234;2023-04-07T02:06:06;98250.22;;;1.68;63.41
66880;BME280;53789;51.392;10.234;2023-04-07T02:06:31;98250.47;;;1.67;63.98